sensor_id;sensor_type;location;lat;lon;timestamp;P1;P2;P0
74432;PMS7003;62865;53.146;23.172;2023-04-15T00:01:29;30.8;27.5;17.8
74432;PMS7003;62865;53.146;23.172;2023-04-15T00:06:17;27;24.6;16.8
74432;PMS7003;62865;53.146;23.172;2023-04-15T00:11:29;28.2;24;16.2
74432;PMS7003;62865;53.146;23.172;2023-04-15T00:16:37;26.3;26.3;15.7
74432;PMS7003;62865;53.146;23.172;2023-04-15T00:21:37;29;26.4;17.6
74432;PMS7003;62865;53.146;23.172;2023-04-15T00:26:29;27.8;26.4;17.4
74432;PMS7003;62865;53.146;23.172;2023-04-15T00:31:27;25.5;23;14.3
74432;PMS7003;62865;53.146;23.172;2023-04-15T00:36:17;26;24.6;17
74432;PMS7003;62865;53.146;23.172;2023-04-15T00:41:49;29.4;26.6;17.4
74432;PMS7003;62865;53.146;23.172;2023-04-15T00:46:37;28.5;25.5;16
74432;PMS7003;62865;53.146;23.172;2023-04-15T00:51:29;28.6;25.2;15
74432;PMS7003;62865;53.146;23.172;2023-04-15T00:56:07;25.8;23.6;17
74432;PMS7003;62865;53.146;23.172;2023-04-15T01:01:29;26.4;23.4;15.4
74432;PMS7003;62865;53.146;23.172;2023-04-15T01:06:51;26.5;24.8;17.3
74432;PMS7003;62865;53.146;23.172;2023-04-15T01:11:37;25.4;21.8;15.8
74432;PMS7003;62865;53.146;23.172;2023-04-15T01:16:29;25.6;22.2;15.6
74432;PMS7003;62865;53.146;23.172;2023-04-15T01:21:17;24.8;22.8;15.5
74432;PMS7003;62865;53.146;23.172;2023-04-15T01:26:43;23.2;22;14
74432;PMS7003;62865;53.146;23.172;2023-04-15T01:31:49;22.2;21;16
74432;PMS7003;62865;53.146;23.172;2023-04-15T01:36:25;24.6;22.2;15.6
74432;PMS7003;62865;53.146;23.172;2023-04-15T01:41:41;24;22;15.3
74432;PMS7003;62865;53.146;23.172;2023-04-15T01:46:19;22.2;21;13.8
74432;PMS7003;62865;53.146;23.172;2023-04-15T01:51:07;26.5;24;17
74432;PMS7003;62865;53.146;23.172;2023-04-15T01:56:47;25;23.5;15.8
74432;PMS7003;62865;53.146;23.172;2023-04-15T02:01:35;26.3;23.3;16
74432;PMS7003;62865;53.146;23.172;2023-04-15T02:06:49;26.8;24.6;15.8
74432;PMS7003;62865;53.146;23.172;2023-04-15T02:11:07;23.8;21.8;14.8
74432;PMS7003;62865;53.146;23.172;2023-04-15T02:16:27;28.3;25.8;17.3
74432;PMS7003;62865;53.146;23.172;2023-04-15T02:21:47;24.8;21.5;13.8
74432;PMS7003;62865;53.146;23.172;2023-04-15T02:26:35;23.6;21.6;15.4
74432;PMS7003;62865;53.146;23.172;2023-04-15T02:31:49;26.3;23.5;15.3
74432;PMS7003;62865;53.146;23.172;2023-04-15T02:36:15;30;25.3;16
74432;PMS7003;62865;53.146;23.172;2023-04-15T02:41:27;26.8;24.2;15.4
74432;PMS7003;62865;53.146;23.172;2023-04-15T02:46:49;20.6;19.4;14.8
74432;PMS7003;62865;53.146;23.172;2023-04-15T02:51:25;23.8;20.6;13.6
74432;PMS7003;62865;53.146;23.172;2023-04-15T02:56:49;26;23.6;15.4
74432;PMS7003;62865;53.146;23.172;2023-04-15T03:01:27;24.8;22.6;15
74432;PMS7003;62865;53.146;23.172;2023-04-15T03:06:07;25.6;21.8;14.2
74432;PMS7003;62865;53.146;23.172;2023-04-15T03:11:51;23.8;21;13.8
74432;PMS7003;62865;53.146;23.172;2023-04-15T03:16:33;23.6;20.4;14.2
74432;PMS7003;62865;53.146;23.172;2023-04-15T03:21:47;23;21.8;13.8
74432;PMS7003;62865;53.146;23.172;2023-04-15T03:26:07;23.6;21;14
74432;PMS7003;62865;53.146;23.172;2023-04-15T03:31:29;20.4;18.6;12.4
74432;PMS7003;62865;53.146;23.172;2023-04-15T03:36:51;22;19.6;13
74432;PMS7003;62865;53.146;23.172;2023-04-15T03:41:35;20.8;19.3;12.3
74432;PMS7003;62865;53.146;23.172;2023-04-15T03:46:43;23.3;19.3;13
74432;PMS7003;62865;53.146;23.172;2023-04-15T03:51:07;24.3;22;13
74432;PMS7003;62865;53.146;23.172;2023-04-15T03:56:15;23;19.8;13.8
74432;PMS7003;62865;53.146;23.172;2023-04-15T04:06:35;23.3;21.7;13
74432;PMS7003;62865;53.146;23.172;2023-04-15T04:11:49;21.5;20.3;13
74432;PMS7003;62865;53.146;23.172;2023-04-15T04:16:15;24.7;21.3;13.3
74432;PMS7003;62865;53.146;23.172;2023-04-15T04:21:27;21.8;20;12.4
74432;PMS7003;62865;53.146;23.172;2023-04-15T04:26:49;23.2;19.8;12.4
74432;PMS7003;62865;53.146;23.172;2023-04-15T04:31:35;21.4;19.2;12.2
74432;PMS7003;62865;53.146;23.172;2023-04-15T04:36:49;20.2;18;11
74432;PMS7003;62865;53.146;23.172;2023-04-15T04:41:07;18.2;16.8;10.2
74432;PMS7003;62865;53.146;23.172;2023-04-15T04:46:27;19.8;16.8;10.4
74432;PMS7003;62865;53.146;23.172;2023-04-15T04:51:51;16.4;13.6;9.2
74432;PMS7003;62865;53.146;23.172;2023-04-15T04:56:29;19;16.6;10.8
74432;PMS7003;62865;53.146;23.172;2023-04-15T05:01:49;17;15.8;10.2
74432;PMS7003;62865;53.146;23.172;2023-04-15T05:06:15;18.2;16;10.8
74432;PMS7003;62865;53.146;23.172;2023-04-15T05:11:49;19;15.8;10.4
74432;PMS7003;62865;53.146;23.172;2023-04-15T05:16:17;17.8;16.4;10.2
74432;PMS7003;62865;53.146;23.172;2023-04-15T05:21:29;19.8;17.6;10.8
74432;PMS7003;62865;53.146;23.172;2023-04-15T05:26:49;16.6;14.2;9.6
74432;PMS7003;62865;53.146;23.172;2023-04-15T05:31:19;16.2;14.4;9.8
74432;PMS7003;62865;53.146;23.172;2023-04-15T05:36:19;17.6;16.6;10.4
74432;PMS7003;62865;53.146;23.172;2023-04-15T05:41:51;17.6;15.4;10
74432;PMS7003;62865;53.146;23.172;2023-04-15T05:46:35;19.4;17.8;10.8
74432;PMS7003;62865;53.146;23.172;2023-04-15T05:51:49;18.2;16.4;10.8
74432;PMS7003;62865;53.146;23.172;2023-04-15T05:56:15;18.6;16.4;10.4
74432;PMS7003;62865;53.146;23.172;2023-04-15T06:01:51;18.2;16.6;11.2
74432;PMS7003;62865;53.146;23.172;2023-04-15T06:06:07;17.6;16.4;10
74432;PMS7003;62865;53.146;23.172;2023-04-15T06:11:27;17;15.8;9.8
74432;PMS7003;62865;53.146;23.172;2023-04-15T06:16:49;19.2;17.2;10.6
74432;PMS7003;62865;53.146;23.172;2023-04-15T06:21:07;17.5;15.3;10
74432;PMS7003;62865;53.146;23.172;2023-04-15T06:26:49;18.2;15.2;9.8
74432;PMS7003;62865;53.146;23.172;2023-04-15T06:31:07;15;13;8.8
74432;PMS7003;62865;53.146;23.172;2023-04-15T06:36:07;15.2;13.6;9
74432;PMS7003;62865;53.146;23.172;2023-04-15T06:41:35;17.4;14.8;9.4
74432;PMS7003;62865;53.146;23.172;2023-04-15T06:46:27;14.2;11.8;8
74432;PMS7003;62865;53.146;23.172;2023-04-15T06:51:49;14.6;12.2;9
74432;PMS7003;62865;53.146;23.172;2023-04-15T06:56:06;13.8;12.2;8.4
74432;PMS7003;62865;53.146;23.172;2023-04-15T07:01:15;14.2;12.2;8.4
74432;PMS7003;62865;53.146;23.172;2023-04-15T07:06:37;15.6;13.4;8.8
74432;PMS7003;62865;53.146;23.172;2023-04-15T07:11:07;12.8;12.4;8.6
74432;PMS7003;62865;53.146;23.172;2023-04-15T07:16:51;13.4;11.4;9
74432;PMS7003;62865;53.146;23.172;2023-04-15T07:21:23;14.2;13;9
74432;PMS7003;62865;53.146;23.172;2023-04-15T07:26:15;14;13;8
74432;PMS7003;62865;53.146;23.172;2023-04-15T07:31:38;11.8;11;8
74432;PMS7003;62865;53.146;23.172;2023-04-15T07:36:15;16.7;13.7;9.3
74432;PMS7003;62865;53.146;23.172;2023-04-15T07:41:33;16;14.3;9.8
74432;PMS7003;62865;53.146;23.172;2023-04-15T07:46:05;15;14.2;9.4
74432;PMS7003;62865;53.146;23.172;2023-04-15T07:51:25;13.3;13;8.8
74432;PMS7003;62865;53.146;23.172;2023-04-15T07:56:35;13;10.8;7.6
74432;PMS7003;62865;53.146;23.172;2023-04-15T08:01:15;11.8;11;7.8
74432;PMS7003;62865;53.146;23.172;2023-04-15T08:06:31;13.2;13;9
74432;PMS7003;62865;53.146;23.172;2023-04-15T08:11:15;12.6;10.6;7.2
74432;PMS7003;62865;53.146;23.172;2023-04-15T08:16:41;13.5;12;8.5
74432;PMS7003;62865;53.146;23.172;2023-04-15T08:21:35;17;11;8
74432;PMS7003;62865;53.146;23.172;2023-04-15T08:26:15;12.4;11.6;8.2
74432;PMS7003;62865;53.146;23.172;2023-04-15T08:31:50;11.6;10;7.2
74432;PMS7003;62865;53.146;23.172;2023-04-15T08:36:07;14.7;12.3;7.7
74432;PMS7003;62865;53.146;23.172;2023-04-15T08:41:44;14.7;13.3;9.7
74432;PMS7003;62865;53.146;23.172;2023-04-15T08:46:17;17;11.5;8.5
74432;PMS7003;62865;53.146;23.172;2023-04-15T08:51:15;13;12.5;9
74432;PMS7003;62865;53.146;23.172;2023-04-15T08:56:49;13.5;11.8;7.8
74432;PMS7003;62865;53.146;23.172;2023-04-15T09:01:15;13.5;11.8;8.3
74432;PMS7003;62865;53.146;23.172;2023-04-15T09:06:19;12.2;11.2;7.8
74432;PMS7003;62865;53.146;23.172;2023-04-15T09:11:37;15.8;13;8.8
74432;PMS7003;62865;53.146;23.172;2023-04-15T09:16:21;11.3;10.8;7.8
74432;PMS7003;62865;53.146;23.172;2023-04-15T09:21:49;11.4;10.6;7.8
74432;PMS7003;62865;53.146;23.172;2023-04-15T09:26:07;11.8;10.2;7.6
74432;PMS7003;62865;53.146;23.172;2023-04-15T09:31:07;10.4;8.8;6.8
74432;PMS7003;62865;53.146;23.172;2023-04-15T09:36:37;10.6;9.4;7
74432;PMS7003;62865;53.146;23.172;2023-04-15T09:41:15;10;9.4;7.2
74432;PMS7003;62865;53.146;23.172;2023-04-15T09:46:51;11.8;10.2;7.4
74432;PMS7003;62865;53.146;23.172;2023-04-15T09:51:15;10.8;9;6.6
74432;PMS7003;62865;53.146;23.172;2023-04-15T09:56:31;12;9.8;7
74432;PMS7003;62865;53.146;23.172;2023-04-15T10:01:37;11;9;6.8
74432;PMS7003;62865;53.146;23.172;2023-04-15T10:06:27;11;9.6;7
74432;PMS7003;62865;53.146;23.172;2023-04-15T10:11:41;11.4;9;6.8
74432;PMS7003;62865;53.146;23.172;2023-04-15T10:16:09;10.6;9.2;6.8
74432;PMS7003;62865;53.146;23.172;2023-04-15T10:21:27;10.4;9.4;7
74432;PMS7003;62865;53.146;23.172;2023-04-15T10:26:49;11;10;7.4
74432;PMS7003;62865;53.146;23.172;2023-04-15T10:31:27;13;11.2;7.8
74432;PMS7003;62865;53.146;23.172;2023-04-15T10:36:41;13.8;12;7.8
74432;PMS7003;62865;53.146;23.172;2023-04-15T10:41:11;12.4;11.2;7.4
74432;PMS7003;62865;53.146;23.172;2023-04-15T10:46:33;12;9.6;7
74432;PMS7003;62865;53.146;23.172;2023-04-15T10:51:50;12;11.2;8
74432;PMS7003;62865;53.146;23.172;2023-04-15T10:56:35;12;10.4;6.8
74432;PMS7003;62865;53.146;23.172;2023-04-15T11:01:49;12.4;10.8;8.2
74432;PMS7003;62865;53.146;23.172;2023-04-15T11:06:15;10.2;9.8;7
74432;PMS7003;62865;53.146;23.172;2023-04-15T11:11:19;13.4;10.6;8
74432;PMS7003;62865;53.146;23.172;2023-04-15T11:16:49;13;11.2;7.4
74432;PMS7003;62865;53.146;23.172;2023-04-15T11:21:19;11.6;10.6;7.4
74432;PMS7003;62865;53.146;23.172;2023-04-15T11:26:41;11.2;10;7.2
74432;PMS7003;62865;53.146;23.172;2023-04-15T11:31:08;10;8.8;6.5
74432;PMS7003;62865;53.146;23.172;2023-04-15T11:36:28;11;9.3;6.8
74432;PMS7003;62865;53.146;23.172;2023-04-15T11:41:51;8.6;8.2;6.4
74432;PMS7003;62865;53.146;23.172;2023-04-15T11:46:20;12;11;7.2
74432;PMS7003;62865;53.146;23.172;2023-04-15T11:51:41;11.5;10;6.8
74432;PMS7003;62865;53.146;23.172;2023-04-15T11:56:16;9.5;8.8;6.7
74432;PMS7003;62865;53.146;23.172;2023-04-15T12:01:31;10.5;9.3;7
74432;PMS7003;62865;53.146;23.172;2023-04-15T12:06:49;9.2;8.4;6.2
74432;PMS7003;62865;53.146;23.172;2023-04-15T12:11:29;11.5;9;6.5
74432;PMS7003;62865;53.146;23.172;2023-04-15T12:16:40;9.4;8.6;6
74432;PMS7003;62865;53.146;23.172;2023-04-15T12:21:22;10.4;10;6.6
74432;PMS7003;62865;53.146;23.172;2023-04-15T12:26:34;12.6;9.8;6.8
74432;PMS7003;62865;53.146;23.172;2023-04-15T12:31:48;9.8;9.2;7
74432;PMS7003;62865;53.146;23.172;2023-04-15T12:36:17;10;9;6.6
74432;PMS7003;62865;53.146;23.172;2023-04-15T12:41:39;9.4;8.4;6.4
74432;PMS7003;62865;53.146;23.172;2023-04-15T12:46:15;10.2;8.4;6
74432;PMS7003;62865;53.146;23.172;2023-04-15T12:51:25;8.4;8.2;6.2
74432;PMS7003;62865;53.146;23.172;2023-04-15T12:56:48;9.2;8.4;5.8
74432;PMS7003;62865;53.146;23.172;2023-04-15T13:01:47;9.4;8.2;6
74432;PMS7003;62865;53.146;23.172;2023-04-15T13:06:39;7.8;7.8;6
74432;PMS7003;62865;53.146;23.172;2023-04-15T13:11:07;9.6;8.8;6.4
74432;PMS7003;62865;53.146;23.172;2023-04-15T13:16:25;10.4;8.6;5.8
74432;PMS7003;62865;53.146;23.172;2023-04-15T13:21:49;11;9.8;7
74432;PMS7003;62865;53.146;23.172;2023-04-15T13:26:07;11.4;9.4;7
74432;PMS7003;62865;53.146;23.172;2023-04-15T13:31:27;11.4;10;7
74432;PMS7003;62865;53.146;23.172;2023-04-15T13:36:07;12.3;9.8;7
74432;PMS7003;62865;53.146;23.172;2023-04-15T13:41:17;11;10;6.8
74432;PMS7003;62865;53.146;23.172;2023-04-15T13:51:23;11.7;9;6
74432;PMS7003;62865;53.146;23.172;2023-04-15T13:56:39;10.7;8.7;6
74432;PMS7003;62865;53.146;23.172;2023-04-15T14:01:07;12;11.3;7.3
74432;PMS7003;62865;53.146;23.172;2023-04-15T14:06:17;11;10;7
74432;PMS7003;62865;53.146;23.172;2023-04-15T14:11:29;11.2;9.2;6.6
74432;PMS7003;62865;53.146;23.172;2023-04-15T14:16:25;13.6;11.2;7.6
74432;PMS7003;62865;53.146;23.172;2023-04-15T14:21:39;14.2;11.6;8.6
74432;PMS7003;62865;53.146;23.172;2023-04-15T14:26:07;13.8;11.4;8.2
74432;PMS7003;62865;53.146;23.172;2023-04-15T14:31:39;12;11;8
74432;PMS7003;62865;53.146;23.172;2023-04-15T14:36:49;12;9.8;7.2
74432;PMS7003;62865;53.146;23.172;2023-04-15T14:41:23;14;12.2;8.4
74432;PMS7003;62865;53.146;23.172;2023-04-15T14:46:39;15.8;14.2;9.6
74432;PMS7003;62865;53.146;23.172;2023-04-15T14:51:15;14.2;11.4;7.4
74432;PMS7003;62865;53.146;23.172;2023-04-15T14:56:39;12.4;10;6.8
74432;PMS7003;62865;53.146;23.172;2023-04-15T15:01:47;8.6;7.8;5.8
74432;PMS7003;62865;53.146;23.172;2023-04-15T15:06:25;10.2;9.2;6.6
74432;PMS7003;62865;53.146;23.172;2023-04-15T15:11:39;11.6;10;6.8
74432;PMS7003;62865;53.146;23.172;2023-04-15T15:16:21;6.8;6;4.6
74432;PMS7003;62865;53.146;23.172;2023-04-15T15:21:39;7.8;7;4.8
74432;PMS7003;62865;53.146;23.172;2023-04-15T15:26:47;7.6;6.4;4.6
74432;PMS7003;62865;53.146;23.172;2023-04-15T15:31:25;8.4;6.4;5
74432;PMS7003;62865;53.146;23.172;2023-04-15T15:36:39;6.8;6.4;4.6
74432;PMS7003;62865;53.146;23.172;2023-04-15T15:41:07;6.6;6.2;4.6
74432;PMS7003;62865;53.146;23.172;2023-04-15T15:46:38;6.4;5;4
74432;PMS7003;62865;53.146;23.172;2023-04-15T15:51:45;5.5;5.5;3.8
74432;PMS7003;62865;53.146;23.172;2023-04-15T15:56:25;6.6;5.6;3.8
74432;PMS7003;62865;53.146;23.172;2023-04-15T16:01:15;7.2;6.4;5.2
74432;PMS7003;62865;53.146;23.172;2023-04-15T16:06:07;8.6;7.2;5.6
74432;PMS7003;62865;53.146;23.172;2023-04-15T16:11:37;8.8;6.6;4.4
74432;PMS7003;62865;53.146;23.172;2023-04-15T16:16:47;8;6.6;5.2
74432;PMS7003;62865;53.146;23.172;2023-04-15T16:21:15;8.8;7;4.8
74432;PMS7003;62865;53.146;23.172;2023-04-15T16:26:29;10;8;5
74432;PMS7003;62865;53.146;23.172;2023-04-15T16:31:15;8;7.2;4.6
74432;PMS7003;62865;53.146;23.172;2023-04-15T16:36:39;8.2;6.2;4.8
74432;PMS7003;62865;53.146;23.172;2023-04-15T16:41:37;10;8;4.8
74432;PMS7003;62865;53.146;23.172;2023-04-15T16:46:25;8;6;5.3
74432;PMS7003;62865;53.146;23.172;2023-04-15T16:51:21;8.8;8;5.2
74432;PMS7003;62865;53.146;23.172;2023-04-15T16:56:23;8.2;7;5
74432;PMS7003;62865;53.146;23.172;2023-04-15T17:01:39;6.4;5.4;3.8
74432;PMS7003;62865;53.146;23.172;2023-04-15T17:06:47;6.5;6.3;4.8
74432;PMS7003;62865;53.146;23.172;2023-04-15T17:11:26;8.2;6.4;4.4
74432;PMS7003;62865;53.146;23.172;2023-04-15T17:16:39;7.6;7.2;4.8
74432;PMS7003;62865;53.146;23.172;2023-04-15T17:21:15;9.4;8.4;5.6
74432;PMS7003;62865;53.146;23.172;2023-04-15T17:26:39;10;7.8;5.4
74432;PMS7003;62865;53.146;23.172;2023-04-15T17:31:49;7.8;6.6;4.8
74432;PMS7003;62865;53.146;23.172;2023-04-15T17:36:25;9.6;8.4;5.8
74432;PMS7003;62865;53.146;23.172;2023-04-15T17:41:09;8.2;6.6;5.2
74432;PMS7003;62865;53.146;23.172;2023-04-15T17:46:21;8.8;8.2;5.4
74432;PMS7003;62865;53.146;23.172;2023-04-15T17:51:39;11;9;5.8
74432;PMS7003;62865;53.146;23.172;2023-04-15T17:56:47;8.8;8;5.8
74432;PMS7003;62865;53.146;23.172;2023-04-15T18:01:07;9.6;6.8;4.8
74432;PMS7003;62865;53.146;23.172;2023-04-15T18:06:39;8.8;6.6;4.8
74432;PMS7003;62865;53.146;23.172;2023-04-15T18:11:15;8.2;6.2;5
74432;PMS7003;62865;53.146;23.172;2023-04-15T18:16:39;8.4;5.2;4
74432;PMS7003;62865;53.146;23.172;2023-04-15T18:21:47;9.4;8.2;5.4
74432;PMS7003;62865;53.146;23.172;2023-04-15T18:26:26;8.4;6.8;4.6
74432;PMS7003;62865;53.146;23.172;2023-04-15T18:31:33;8.6;7.6;4.4
74432;PMS7003;62865;53.146;23.172;2023-04-15T18:36:08;8;6.5;4
74432;PMS7003;62865;53.146;23.172;2023-04-15T18:41:39;10.3;8.3;5.3
74432;PMS7003;62865;53.146;23.172;2023-04-15T18:46:49;6.8;5.8;4.2
74432;PMS7003;62865;53.146;23.172;2023-04-15T18:51:07;6.4;6.2;4.8
74432;PMS7003;62865;53.146;23.172;2023-04-15T18:56:49;7.6;5.2;4
74432;PMS7003;62865;53.146;23.172;2023-04-15T19:01:08;6.6;5.8;4.2
74432;PMS7003;62865;53.146;23.172;2023-04-15T19:06:39;6.2;5.2;3.8
74432;PMS7003;62865;53.146;23.172;2023-04-15T19:11:47;6;5.4;4.2
74432;PMS7003;62865;53.146;23.172;2023-04-15T19:16:24;6.6;5.2;4
74432;PMS7003;62865;53.146;23.172;2023-04-15T19:21:45;8.6;7.4;4.8
74432;PMS7003;62865;53.146;23.172;2023-04-15T19:26:16;8.4;7.2;4.6
74432;PMS7003;62865;53.146;23.172;2023-04-15T19:31:38;7.4;5.4;4.2
74432;PMS7003;62865;53.146;23.172;2023-04-15T19:36:36;7.6;6.4;4.4
74432;PMS7003;62865;53.146;23.172;2023-04-15T19:41:28;7;5.5;3.5
74432;PMS7003;62865;53.146;23.172;2023-04-15T19:46:48;6.7;5.7;4.3
74432;PMS7003;62865;53.146;23.172;2023-04-15T19:51:08;7.7;5.7;4
74432;PMS7003;62865;53.146;23.172;2023-04-15T19:56:40;6.4;5.8;4
74432;PMS7003;62865;53.146;23.172;2023-04-15T20:01:48;6.3;6;4
74432;PMS7003;62865;53.146;23.172;2023-04-15T20:06:26;7.6;6.6;4.4
74432;PMS7003;62865;53.146;23.172;2023-04-15T20:11:48;7.8;6.6;4.4
74432;PMS7003;62865;53.146;23.172;2023-04-15T20:16:22;5.8;4.8;3.2
74432;PMS7003;62865;53.146;23.172;2023-04-15T20:21:38;5.6;4.8;3.8
74432;PMS7003;62865;53.146;23.172;2023-04-15T20:26:48;6.2;4.4;2.8
74432;PMS7003;62865;53.146;23.172;2023-04-15T20:31:26;4.4;3.8;2.4
74432;PMS7003;62865;53.146;23.172;2023-04-15T20:36:48;4.6;3.8;3.2
74432;PMS7003;62865;53.146;23.172;2023-04-15T20:41:08;4;4;3.3
74432;PMS7003;62865;53.146;23.172;2023-04-15T20:46:40;4.4;4;2.6
74432;PMS7003;62865;53.146;23.172;2023-04-15T20:51:48;3.2;2.8;2.2
74432;PMS7003;62865;53.146;23.172;2023-04-15T20:56:08;3.2;2.6;2
74432;PMS7003;62865;53.146;23.172;2023-04-15T21:01:50;1.8;1.8;1.5
74432;PMS7003;62865;53.146;23.172;2023-04-15T21:06:22;1.4;1.4;1
74432;PMS7003;62865;53.146;23.172;2023-04-15T21:11:40;1.2;1;0.8
74432;PMS7003;62865;53.146;23.172;2023-04-15T21:16:46;2.2;1;0.6
74432;PMS7003;62865;53.146;23.172;2023-04-15T21:21:24;1.5;1.5;1
74432;PMS7003;62865;53.146;23.172;2023-04-15T21:26:50;1.4;1;0.4
74432;PMS7003;62865;53.146;23.172;2023-04-15T21:31:16;1;1;0.6
74432;PMS7003;62865;53.146;23.172;2023-04-15T21:36:28;1.2;1.2;0.4
74432;PMS7003;62865;53.146;23.172;2023-04-15T21:41:50;1;0.8;0.2
74432;PMS7003;62865;53.146;23.172;2023-04-15T21:46:26;2.4;1.2;0.6
74432;PMS7003;62865;53.146;23.172;2023-04-15T21:51:48;0.4;0.4;0.2
74432;PMS7003;62865;53.146;23.172;2023-04-15T21:56:16;1.3;1;0.8
74432;PMS7003;62865;53.146;23.172;2023-04-15T22:01:40;0.8;0.6;0.6
74432;PMS7003;62865;53.146;23.172;2023-04-15T22:06:48;1.6;0.8;0.4
74432;PMS7003;62865;53.146;23.172;2023-04-15T22:11:18;2.4;1.2;1
74432;PMS7003;62865;53.146;23.172;2023-04-15T22:16:48;1.5;1.3;1
74432;PMS7003;62865;53.146;23.172;2023-04-15T22:21:08;2;1.7;1.3
74432;PMS7003;62865;53.146;23.172;2023-04-15T22:26:40;2.2;1.8;1.4
74432;PMS7003;62865;53.146;23.172;2023-04-15T22:31:46;2;1.6;1.2
74432;PMS7003;62865;53.146;23.172;2023-04-15T22:36:08;2.4;2.4;1.6
74432;PMS7003;62865;53.146;23.172;2023-04-15T22:41:46;2.8;2;1.5
74432;PMS7003;62865;53.146;23.172;2023-04-15T22:46:16;2;1.8;1.2
74432;PMS7003;62865;53.146;23.172;2023-04-15T22:51:40;1.8;1.8;1.2
74432;PMS7003;62865;53.146;23.172;2023-04-15T22:56:17;1.3;1;0.5
74432;PMS7003;62865;53.146;23.172;2023-04-15T23:01:50;1.6;1.2;0.8
74432;PMS7003;62865;53.146;23.172;2023-04-15T23:06:08;1;0.8;0.6
74432;PMS7003;62865;53.146;23.172;2023-04-15T23:11:26;0.8;0.4;0.2
74432;PMS7003;62865;53.146;23.172;2023-04-15T23:16:38;0.8;0.8;0.4
74432;PMS7003;62865;53.146;23.172;2023-04-15T23:21:08;1.2;0.4;0.2
74432;PMS7003;62865;53.146;23.172;2023-04-15T23:26:48;1;0.8;0.4
74432;PMS7003;62865;53.146;23.172;2023-04-15T23:31:22;1.2;1.2;1
74432;PMS7003;62865;53.146;23.172;2023-04-15T23:36:22;1.8;1.3;0.8
74432;PMS7003;62865;53.146;23.172;2023-04-15T23:41:10;1.6;1.6;0.8
74432;PMS7003;62865;53.146;23.172;2023-04-15T23:46:16;1;1;1
74432;PMS7003;62865;53.146;23.172;2023-04-15T23:51:36;1.2;0.6;0.4
74432;PMS7003;62865;53.146;23.172;2023-04-15T23:56:14;1.5;1;0.8
